Time,TemperatureF,DewpointF,PressureIn,WindDirection,WindDirectionDegrees,WindSpeedMPH,WindSpeedGustMPH,Humidity,HourlyPrecipIn,Conditions,Clouds,dailyrainin,SoftwareType,DateUTC
2013-06-08 00:00:00,54.9,53.2,30.10,WNW,289,3.0,5.0,94,0.00,,,0.00,Wunderground v.1.15,2013-06-08 07:00:00,
2013-06-08 00:10:00,54.6,52.9,30.10,NNW,344,4.0,4.0,94,0.00,,,0.00,Wunderground v.1.15,2013-06-08 07:10:00,
2013-06-08 00:15:00,54.5,52.8,30.10,WNW,298,4.0,4.0,94,0.00,,,0.00,Wunderground v.1.15,2013-06-08 07:15:00,
2013-06-08 00:25:00,54.4,53.0,30.10,WNW,301,2.0,4.0,95,0.00,,,0.00,Wunderground v.1.15,2013-06-08 07:25:00,
2013-06-08 00:35:00,54.3,52.9,30.10,WNW,296,2.0,6.0,95,0.00,,,0.00,Wunderground v.1.15,2013-06-08 07:35:00,
2013-06-08 00:45:00,54.2,52.8,30.10,NW,325,2.0,3.0,95,0.00,,,0.00,Wunderground v.1.15,2013-06-08 07:45:00,
2013-06-08 00:55:00,54.1,52.7,30.09,WNW,288,2.0,2.0,95,0.00,,,0.00,Wunderground v.1.15,2013-06-08 07:55:00,
2013-06-08 01:00:00,54.1,52.7,30.09,NW,306,1.0,1.0,95,0.00,,,0.00,Wunderground v.1.15,2013-06-08 08:00:00,
2013-06-08 01:10:00,54.1,52.7,30.09,NW,313,1.0,1.0,95,0.00,,,0.00,Wunderground v.1.15,2013-06-08 08:10:00,
2013-06-08 01:15:00,54.1,52.7,30.09,NW,325,1.0,1.0,95,0.00,,,0.00,Wunderground v.1.15,2013-06-08 08:15:00,
2013-06-08 01:25:00,54.0,52.9,30.09,NW,319,1.0,1.0,96,0.00,,,0.00,Wunderground v.1.15,2013-06-08 08:25:00,
2013-06-08 01:35:00,54.0,52.9,30.08,WNW,288,1.0,1.0,96,0.00,,,0.00,Wunderground v.1.15,2013-06-08 08:35:00,
2013-06-08 01:45:00,54.1,53.0,30.08,WNW,303,1.0,2.0,96,0.00,,,0.00,Wunderground v.1.15,2013-06-08 08:45:00,
2013-06-08 01:55:00,54.1,53.0,30.07,WNW,290,0.0,1.0,96,0.00,,,0.00,Wunderground v.1.15,2013-06-08 08:55:00,
2013-06-08 02:00:00,54.1,53.0,30.07,NNW,330,0.0,0.0,96,0.00,,,0.00,Wunderground v.1.15,2013-06-08 09:00:00,
2013-06-08 02:10:00,54.2,53.4,30.08,NNW,330,0.0,0.0,97,0.00,,,0.00,Wunderground v.1.15,2013-06-08 09:10:00,
2013-06-08 02:15:00,54.2,53.4,30.07,NNW,330,0.0,2.0,97,0.00,,,0.00,Wunderground v.1.15,2013-06-08 09:15:00,
2013-06-08 02:25:00,54.1,53.3,30.07,NW,324,0.0,1.0,97,0.00,,,0.00,Wunderground v.1.15,2013-06-08 09:25:00,
2013-06-08 02:35:00,54.2,53.4,30.07,NW,324,0.0,0.0,97,0.00,,,0.00,Wunderground v.1.15,2013-06-08 09:35:00,
2013-06-08 02:45:00,54.2,53.4,30.07,NW,324,0.0,0.0,97,0.00,,,0.00,Wunderground v.1.15,2013-06-08 09:45:00,
2013-06-08 02:55:00,54.3,53.5,30.07,NW,323,0.0,1.0,97,0.00,,,0.00,Wunderground v.1.15,2013-06-08 09:55:00,
2013-06-08 03:00:00,54.3,53.5,30.07,NW,326,0.0,0.0,97,0.00,,,0.00,Wunderground v.1.15,2013-06-08 10:00:00,
2013-06-08 03:10:00,54.3,53.5,30.07,NNW,330,1.0,2.0,97,0.00,,,0.00,Wunderground v.1.15,2013-06-08 10:10:00,
2013-06-08 03:15:00,54.3,53.5,30.07,NW,309,2.0,3.0,97,0.00,,,0.00,Wunderground v.1.15,2013-06-08 10:15:00,
2013-06-08 03:25:00,54.2,53.6,30.07,North,355,1.0,1.0,98,0.00,,,0.00,Wunderground v.1.15,2013-06-08 10:25:00,
2013-06-08 03:30:00,54.1,53.5,30.07,NW,308,1.0,2.0,98,0.00,,,0.00,Wunderground v.1.15,2013-06-08 10:30:00,
2013-06-08 03:40:00,53.9,53.1,30.07,WNW,294,2.0,2.0,97,0.00,,,0.00,Wunderground v.1.15,2013-06-08 10:40:00,
2013-06-08 03:50:00,53.7,53.1,30.06,NW,307,2.0,2.0,98,0.00,,,0.00,Wunderground v.1.15,2013-06-08 10:50:00,
2013-06-08 04:05:00,53.6,53.0,30.06,WNW,291,2.0,2.0,98,0.00,,,0.00,Wunderground v.1.15,2013-06-08 11:05:00,
2013-06-08 04:15:00,53.5,52.9,30.06,NNW,339,2.0,2.0,98,0.00,,,0.00,Wunderground v.1.15,2013-06-08 11:15:00,
2013-06-08 04:25:00,53.5,52.9,30.06,NW,304,2.0,2.0,98,0.00,,,0.00,Wunderground v.1.15,2013-06-08 11:25:00,
2013-06-08 04:35:00,53.5,52.9,30.06,NNW,329,2.0,3.0,98,0.00,,,0.00,Wunderground v.1.15,2013-06-08 11:35:00,
2013-06-08 04:45:00,53.4,52.8,30.05,NW,307,0.0,0.0,98,0.00,,,0.00,Wunderground v.1.15,2013-06-08 11:45:00,
2013-06-08 04:55:00,53.4,52.8,30.05,NW,304,1.0,1.0,98,0.00,,,0.00,Wunderground v.1.15,2013-06-08 11:55:00,
2013-06-08 05:00:00,53.4,52.8,30.05,NW,304,1.0,1.0,98,0.00,,,0.00,Wunderground v.1.15,2013-06-08 12:00:00,
2013-06-08 05:10:00,53.4,52.8,30.05,NW,311,1.0,1.0,98,0.00,,,0.00,Wunderground v.1.15,2013-06-08 12:10:00,
2013-06-08 05:20:00,53.3,52.8,30.05,WNW,299,1.0,1.0,98,0.00,,,0.00,Wunderground v.1.15,2013-06-08 12:20:00,
2013-06-08 05:30:00,53.4,52.8,30.05,WNW,300,0.0,2.0,98,0.00,,,0.00,Wunderground v.1.15,2013-06-08 12:30:00,
2013-06-08 05:40:00,53.3,52.8,30.06,NNW,327,1.0,1.0,98,0.00,,,0.00,Wunderground v.1.15,2013-06-08 12:40:00,
2013-06-08 05:50:00,53.3,52.8,30.06,NW,323,1.0,1.0,98,0.00,,,0.00,Wunderground v.1.15,2013-06-08 12:50:00,
2013-06-08 05:55:00,53.4,52.8,30.06,NW,323,0.0,1.0,98,0.00,,,0.00,Wunderground v.1.15,2013-06-08 12:55:00,
2013-06-08 06:00:00,53.4,52.8,30.06,NW,319,0.0,2.0,98,0.00,,,0.00,Wunderground v.1.15,2013-06-08 13:00:00,
2013-06-08 06:10:00,53.5,52.9,30.05,NW,319,0.0,0.0,98,0.00,,,0.00,Wunderground v.1.15,2013-06-08 13:10:00,
2013-06-08 06:15:00,53.5,52.9,30.06,NNW,329,0.0,0.0,98,0.00,,,0.00,Wunderground v.1.15,2013-06-08 13:15:00,
2013-06-08 06:25:00,53.7,53.4,30.06,NNW,329,0.0,0.0,99,0.00,,,0.00,Wunderground v.1.15,2013-06-08 13:25:00,
2013-06-08 06:35:00,53.8,53.5,30.06,NW,311,0.0,2.0,99,0.00,,,0.00,Wunderground v.1.15,2013-06-08 13:35:00,
2013-06-08 06:45:00,53.9,53.6,30.06,NNW,331,0.0,0.0,99,0.00,,,0.00,Wunderground v.1.15,2013-06-08 13:45:00,
2013-06-08 06:55:00,53.8,53.5,30.06,WNW,289,1.0,2.0,99,0.00,,,0.00,Wunderground v.1.15,2013-06-08 13:55:00,
2013-06-08 07:00:00,53.8,53.5,30.06,WNW,286,1.0,2.0,99,0.00,,,0.00,Wunderground v.1.15,2013-06-08 14:00:00,
2013-06-08 07:10:00,53.9,53.6,30.06,WNW,285,2.0,2.0,99,0.00,,,0.00,Wunderground v.1.15,2013-06-08 14:10:00,
2013-06-08 07:20:00,53.9,53.6,30.06,NNW,345,2.0,4.0,99,0.00,,,0.00,Wunderground v.1.15,2013-06-08 14:20:00,
2013-06-08 07:30:00,53.7,53.4,30.06,West,275,2.0,2.0,99,0.00,,,0.00,Wunderground v.1.15,2013-06-08 14:30:00,
2013-06-08 07:40:00,53.9,53.6,30.06,West,277,2.0,3.0,99,0.00,,,0.00,Wunderground v.1.15,2013-06-08 14:40:00,
2013-06-08 07:50:00,54.1,53.8,30.06,WNW,302,1.0,1.0,99,0.00,,,0.00,Wunderground v.1.15,2013-06-08 14:50:00,
2013-06-08 08:00:00,54.2,53.9,30.06,North,351,1.0,1.0,99,0.00,,,0.00,Wunderground v.1.15,2013-06-08 15:00:00,
2013-06-08 08:10:00,54.2,53.9,30.06,North,355,1.0,2.0,99,0.00,,,0.00,Wunderground v.1.15,2013-06-08 15:10:00,
2013-06-08 08:15:00,54.5,54.2,30.06,WSW,254,1.0,2.0,99,0.00,,,0.00,Wunderground v.1.15,2013-06-08 15:15:00,
2013-06-08 08:25:00,54.6,54.3,30.06,NNW,341,1.0,2.0,99,0.00,,,0.00,Wunderground v.1.15,2013-06-08 15:25:00,
2013-06-08 08:35:00,55.0,54.7,30.06,North,350,1.0,1.0,99,0.00,,,0.00,Wunderground v.1.15,2013-06-08 15:35:00,
2013-06-08 08:45:00,55.7,55.4,30.05,NNW,337,1.0,2.0,99,0.00,,,0.00,Wunderground v.1.15,2013-06-08 15:45:00,
2013-06-08 08:55:00,56.7,56.4,30.05,NW,320,1.0,1.0,99,0.00,,,0.00,Wunderground v.1.15,2013-06-08 15:55:00,
2013-06-08 09:00:00,57.1,56.5,30.05,NNW,348,1.0,1.0,98,0.00,,,0.00,Wunderground v.1.15,2013-06-08 16:00:00,
2013-06-08 09:10:00,58.3,56.9,30.05,SE,134,1.0,1.0,95,0.00,,,0.00,Wunderground v.1.15,2013-06-08 16:10:00,
2013-06-08 09:25:00,60.8,58.2,30.05,SW,228,0.0,0.0,91,0.00,,,0.00,Wunderground v.1.15,2013-06-08 16:25:00,
2013-06-08 09:30:00,61.4,57.5,30.05,WSW,254,0.0,0.0,87,0.00,,,0.00,Wunderground v.1.15,2013-06-08 16:30:00,
2013-06-08 09:40:00,62.3,58.1,30.05,NW,307,0.0,0.0,86,0.00,,,0.00,Wunderground v.1.15,2013-06-08 16:40:00,
2013-06-08 09:50:00,64.1,59.5,30.05,NNE,12,1.0,2.0,85,0.00,,,0.00,Wunderground v.1.15,2013-06-08 16:50:00,
2013-06-08 10:00:00,65.0,58.7,30.05,North,5,2.0,4.0,80,0.00,,,0.00,Wunderground v.1.15,2013-06-08 17:00:00,
2013-06-08 10:10:00,65.9,60.2,30.04,WNW,302,4.0,6.0,82,0.00,,,0.00,Wunderground v.1.15,2013-06-08 17:10:00,
2013-06-08 10:20:00,66.3,58.5,30.04,NW,305,4.0,8.0,76,0.00,,,0.00,Wunderground v.1.15,2013-06-08 17:20:00,
2013-06-08 10:30:00,66.9,59.1,30.04,West,259,3.0,8.0,76,0.00,,,0.00,Wunderground v.1.15,2013-06-08 17:30:00,
2013-06-08 10:40:00,67.4,59.2,30.03,NW,310,4.0,6.0,75,0.00,,,0.00,Wunderground v.1.15,2013-06-08 17:40:00,
2013-06-08 10:50:00,68.1,61.3,30.03,NW,309,4.0,4.0,79,0.00,,,0.00,Wunderground v.1.15,2013-06-08 17:50:00,
2013-06-08 11:00:00,69.2,60.2,30.03,WNW,298,3.0,3.0,73,0.00,,,0.00,Wunderground v.1.15,2013-06-08 18:00:00,
2013-06-08 11:10:00,69.6,59.4,30.03,WNW,298,4.0,6.0,70,0.00,,,0.00,Wunderground v.1.15,2013-06-08 18:10:00,
2013-06-08 11:20:00,70.2,61.1,30.02,WNW,284,5.0,5.0,73,0.00,,,0.00,Wunderground v.1.15,2013-06-08 18:20:00,
2013-06-08 11:30:00,71.0,61.1,30.02,North,355,3.0,3.0,71,0.00,,,0.00,Wunderground v.1.15,2013-06-08 18:30:00,
2013-06-08 11:40:00,71.9,60.3,30.02,ENE,61,3.0,3.0,67,0.00,,,0.00,Wunderground v.1.15,2013-06-08 18:40:00,
2013-06-08 11:50:00,73.0,60.5,30.02,NW,326,3.0,4.0,65,0.00,,,0.00,Wunderground v.1.15,2013-06-08 18:50:00,
2013-06-08 12:00:00,73.5,63.1,30.02,NNW,336,4.0,4.0,70,0.00,,,0.00,Wunderground v.1.15,2013-06-08 19:00:00,
2013-06-08 12:10:00,74.4,61.9,30.02,WNW,301,4.0,4.0,65,0.00,,,0.00,Wunderground v.1.15,2013-06-08 19:10:00,
2013-06-08 12:20:00,74.2,60.8,30.02,WNW,297,5.0,8.0,63,0.00,,,0.00,Wunderground v.1.15,2013-06-08 19:20:00,
2013-06-08 12:30:00,75.3,63.6,30.02,WNW,301,4.0,4.0,67,0.00,,,0.00,Wunderground v.1.15,2013-06-08 19:30:00,
2013-06-08 12:40:00,75.5,60.6,30.02,West,274,5.0,5.0,60,0.00,,,0.00,Wunderground v.1.15,2013-06-08 19:40:00,
2013-06-08 12:50:00,75.7,60.8,30.02,North,360,4.0,5.0,60,0.00,,,0.00,Wunderground v.1.15,2013-06-08 19:50:00,
2013-06-08 13:00:00,75.6,59.8,30.01,WNW,296,4.0,4.0,58,0.00,,,0.00,Wunderground v.1.15,2013-06-08 20:00:00,
2013-06-08 13:10:00,75.7,59.4,30.02,NW,321,4.0,4.0,57,0.00,,,0.00,Wunderground v.1.15,2013-06-08 20:10:00,
2013-06-08 13:20:00,75.3,58.5,30.02,WSW,258,5.0,7.0,56,0.00,,,0.00,Wunderground v.1.15,2013-06-08 20:20:00,
2013-06-08 13:30:00,74.4,58.2,30.02,WNW,292,6.0,6.0,57,0.00,,,0.00,Wunderground v.1.15,2013-06-08 20:30:00,
2013-06-08 13:40:00,73.6,56.9,30.02,WNW,292,6.0,9.0,56,0.00,,,0.00,Wunderground v.1.15,2013-06-08 20:40:00,
2013-06-08 13:50:00,73.1,56.0,30.02,NNW,346,6.0,10.0,55,0.00,,,0.00,Wunderground v.1.15,2013-06-08 20:50:00,
2013-06-08 14:00:00,73.0,55.9,30.02,WNW,296,7.0,8.0,55,0.00,,,0.00,Wunderground v.1.15,2013-06-08 21:00:00,
2013-06-08 14:10:00,73.1,58.8,30.02,West,275,4.0,8.0,61,0.00,,,0.00,Wunderground v.1.15,2013-06-08 21:10:00,
2013-06-08 14:20:00,73.1,55.5,30.02,WNW,283,5.0,5.0,54,0.00,,,0.00,Wunderground v.1.15,2013-06-08 21:20:00,
2013-06-08 14:30:00,72.4,55.3,30.02,NNW,327,5.0,11.0,55,0.00,,,0.00,Wunderground v.1.15,2013-06-08 21:30:00,
2013-06-08 14:40:00,71.3,53.3,30.01,WNW,283,6.0,6.0,53,0.00,,,0.00,Wunderground v.1.15,2013-06-08 21:40:00,
2013-06-08 14:50:00,70.7,55.2,30.02,WNW,284,6.0,14.0,58,0.00,,,0.00,Wunderground v.1.15,2013-06-08 21:50:00,
2013-06-08 15:00:00,70.6,54.6,30.01,North,360,6.0,11.0,57,0.00,,,0.00,Wunderground v.1.15,2013-06-08 22:00:00,
2013-06-08 15:10:00,70.7,53.2,30.02,NNW,327,5.0,5.0,54,0.00,,,0.00,Wunderground v.1.15,2013-06-08 22:10:00,
2013-06-08 15:15:00,70.4,53.0,30.02,WNW,287,5.0,6.0,54,0.00,,,0.00,Wunderground v.1.15,2013-06-08 22:15:00,
2013-06-08 15:20:00,69.9,52.5,30.02,WNW,296,5.0,14.0,54,0.00,,,0.00,Wunderground v.1.15,2013-06-08 22:20:00,
2013-06-08 15:30:00,69.4,53.5,30.02,NNW,327,6.0,6.0,57,0.00,,,0.00,Wunderground v.1.15,2013-06-08 22:30:00,
2013-06-08 15:40:00,69.4,51.5,30.02,NW,322,6.0,6.0,53,0.00,,,0.00,Wunderground v.1.15,2013-06-08 22:40:00,
2013-06-08 15:45:00,68.8,52.0,30.02,WNW,300,7.0,9.0,55,0.00,,,0.00,Wunderground v.1.15,2013-06-08 22:45:00,
2013-06-08 15:55:00,69.0,53.6,30.02,WNW,288,5.0,6.0,58,0.00,,,0.00,Wunderground v.1.15,2013-06-08 22:55:00,
2013-06-08 16:00:00,69.2,50.8,30.02,West,277,5.0,5.0,52,0.00,,,0.00,Wunderground v.1.15,2013-06-08 23:00:00,
2013-06-08 16:10:00,68.9,51.1,30.02,NW,305,4.0,7.0,53,0.00,,,0.00,Wunderground v.1.15,2013-06-08 23:10:00,
2013-06-08 16:20:00,69.1,50.2,30.02,NW,307,5.0,5.0,51,0.00,,,0.00,Wunderground v.1.15,2013-06-08 23:20:00,
2013-06-08 16:30:00,69.4,52.0,30.02,WNW,302,5.0,5.0,54,0.00,,,0.00,Wunderground v.1.15,2013-06-08 23:30:00,
2013-06-08 16:40:00,68.5,50.7,30.02,West,261,6.0,6.0,53,0.00,,,0.00,Wunderground v.1.15,2013-06-08 23:40:00,
2013-06-08 16:50:00,68.2,51.9,30.02,NNE,12,5.0,6.0,56,0.00,,,0.00,Wunderground v.1.15,2013-06-08 23:50:00,
2013-06-08 17:00:00,66.9,50.2,30.02,NNW,329,7.0,8.0,55,0.00,,,0.00,Wunderground v.1.15,2013-06-09 00:00:00,
2013-06-08 17:10:00,65.8,49.7,30.02,NW,309,9.0,9.0,56,0.00,,,0.00,Wunderground v.1.15,2013-06-09 00:10:00,
2013-06-08 17:20:00,65.4,49.3,30.02,SW,225,7.0,8.0,56,0.00,,,0.00,Wunderground v.1.15,2013-06-09 00:20:00,
2013-06-08 17:30:00,64.8,48.7,30.02,NW,311,7.0,9.0,56,0.00,,,0.00,Wunderground v.1.15,2013-06-09 00:30:00,
2013-06-08 17:40:00,64.6,48.1,30.02,WNW,289,7.0,8.0,55,0.00,,,0.00,Wunderground v.1.15,2013-06-09 00:40:00,
2013-06-08 17:50:00,64.6,49.5,30.02,North,360,5.0,8.0,58,0.00,,,0.00,Wunderground v.1.15,2013-06-09 00:50:00,
2013-06-08 18:00:00,64.8,49.2,30.02,NE,46,6.0,6.0,57,0.00,,,0.00,Wunderground v.1.15,2013-06-09 01:00:00,
2013-06-08 18:10:00,64.6,49.5,30.01,NW,319,7.0,7.0,58,0.00,,,0.00,Wunderground v.1.15,2013-06-09 01:10:00,
2013-06-08 18:15:00,64.6,48.1,30.01,NNE,15,6.0,7.0,55,0.00,,,0.00,Wunderground v.1.15,2013-06-09 01:15:00,
2013-06-08 18:25:00,65.1,48.0,30.01,NNW,329,4.0,8.0,54,0.00,,,0.00,Wunderground v.1.15,2013-06-09 01:25:00,
2013-06-08 18:35:00,65.0,48.9,30.01,WNW,302,6.0,6.0,56,0.00,,,0.00,Wunderground v.1.15,2013-06-09 01:35:00,
2013-06-08 18:45:00,65.0,49.4,30.01,NW,309,5.0,5.0,57,0.00,,,0.00,Wunderground v.1.15,2013-06-09 01:45:00,
2013-06-08 18:50:00,65.0,49.4,30.02,NW,306,4.0,4.0,57,0.00,,,0.00,Wunderground v.1.15,2013-06-09 01:50:00,
2013-06-08 19:00:00,64.6,49.0,30.02,WNW,287,5.0,5.0,57,0.00,,,0.00,Wunderground v.1.15,2013-06-09 02:00:00,
2013-06-08 19:10:00,64.5,48.4,30.02,WNW,300,3.0,3.0,56,0.00,,,0.00,Wunderground v.1.15,2013-06-09 02:10:00,
2013-06-08 19:20:00,63.5,49.8,30.02,NW,306,3.0,5.0,61,0.00,,,0.00,Wunderground v.1.15,2013-06-09 02:20:00,
2013-06-08 19:30:00,62.1,50.2,30.02,NW,324,5.0,5.0,65,0.00,,,0.00,Wunderground v.1.15,2013-06-09 02:30:00,
2013-06-08 19:40:00,60.7,49.3,30.02,WNW,285,5.0,5.0,66,0.00,,,0.00,Wunderground v.1.15,2013-06-09 02:40:00,
2013-06-08 19:50:00,59.7,48.7,30.02,WNW,298,3.0,3.0,67,0.00,,,0.00,Wunderground v.1.15,2013-06-09 02:50:00,
2013-06-08 20:00:00,59.1,48.5,30.02,WNW,291,3.0,3.0,68,0.00,,,0.00,Wunderground v.1.15,2013-06-09 03:00:00,
2013-06-08 20:10:00,58.7,48.6,30.02,West,272,3.0,5.0,69,0.00,,,0.00,Wunderground v.1.15,2013-06-09 03:10:00,
2013-06-08 20:20:00,57.9,48.9,30.02,WNW,298,2.0,2.0,72,0.00,,,0.00,Wunderground v.1.15,2013-06-09 03:20:00,
2013-06-08 20:30:00,57.4,48.8,30.02,West,266,2.0,4.0,73,0.00,,,0.00,Wunderground v.1.15,2013-06-09 03:30:00,
2013-06-08 20:40:00,57.3,48.7,30.02,North,5,2.0,2.0,73,0.00,,,0.00,Wunderground v.1.15,2013-06-09 03:40:00,
2013-06-08 20:50:00,57.0,48.8,30.03,WNW,286,1.0,1.0,74,0.00,,,0.00,Wunderground v.1.15,2013-06-09 03:50:00,
2013-06-08 21:00:00,56.6,49.1,30.03,WNW,284,1.0,1.0,76,0.00,,,0.00,Wunderground v.1.15,2013-06-09 04:00:00,
2013-06-08 21:05:00,56.4,48.6,30.03,NNW,348,1.0,1.0,75,0.00,,,0.00,Wunderground v.1.15,2013-06-09 04:05:00,
2013-06-08 21:10:00,56.2,49.1,30.03,NW,310,1.0,3.0,77,0.00,,,0.00,Wunderground v.1.15,2013-06-09 04:10:00,
2013-06-08 21:15:00,55.9,48.8,30.03,WNW,303,1.0,3.0,77,0.00,,,0.00,Wunderground v.1.15,2013-06-09 04:15:00,
2013-06-08 21:20:00,55.5,49.1,30.03,SW,225,0.0,0.0,79,0.00,,,0.00,Wunderground v.1.15,2013-06-09 04:20:00,
2013-06-08 21:30:00,54.9,48.5,30.04,WNW,296,0.0,0.0,79,0.00,,,0.00,Wunderground v.1.15,2013-06-09 04:30:00,
2013-06-08 21:40:00,54.4,48.4,30.04,WNW,296,0.0,0.0,80,0.00,,,0.00,Wunderground v.1.15,2013-06-09 04:40:00,
2013-06-08 21:50:00,54.0,48.3,30.04,West,281,0.0,0.0,81,0.00,,,0.00,Wunderground v.1.15,2013-06-09 04:50:00,
2013-06-08 22:00:00,53.5,48.5,30.04,West,281,0.0,0.0,83,0.00,,,0.00,Wunderground v.1.15,2013-06-09 05:00:00,
2013-06-08 22:05:00,53.3,48.6,30.04,WNW,285,0.0,0.0,84,0.00,,,0.00,Wunderground v.1.15,2013-06-09 05:05:00,
2013-06-08 22:10:00,53.2,48.5,30.04,WNW,285,0.0,0.0,84,0.00,,,0.00,Wunderground v.1.15,2013-06-09 05:10:00,
2013-06-08 22:20:00,52.8,48.7,30.04,NW,304,0.0,0.0,86,0.00,,,0.00,Wunderground v.1.15,2013-06-09 05:20:00,
2013-06-08 22:30:00,52.6,48.5,30.05,NW,321,0.0,0.0,86,0.00,,,0.00,Wunderground v.1.15,2013-06-09 05:30:00,
2013-06-08 22:40:00,52.6,48.5,30.04,West,278,0.0,0.0,86,0.00,,,0.00,Wunderground v.1.15,2013-06-09 05:40:00,
2013-06-08 22:50:00,52.5,48.4,30.04,NNE,33,0.0,0.0,86,0.00,,,0.00,Wunderground v.1.15,2013-06-09 05:50:00,
2013-06-08 23:00:00,52.2,48.1,30.04,NNE,33,0.0,0.0,86,0.00,,,0.00,Wunderground v.1.15,2013-06-09 06:00:00,
2013-06-08 23:05:00,52.0,48.3,30.04,NNE,33,0.0,0.0,87,0.00,,,0.00,Wunderground v.1.15,2013-06-09 06:05:00,
2013-06-08 23:15:00,51.7,48.0,30.04,NNE,33,0.0,0.0,87,0.00,,,0.00,Wunderground v.1.15,2013-06-09 06:15:00,
2013-06-08 23:20:00,51.6,48.2,30.03,NNE,33,0.0,0.0,88,0.00,,,0.00,Wunderground v.1.15,2013-06-09 06:20:00,
2013-06-08 23:30:00,51.4,48.0,30.03,NE,34,0.0,0.0,88,0.00,,,0.00,Wunderground v.1.15,2013-06-09 06:30:00,
2013-06-08 23:40:00,51.1,48.0,30.03,NNE,28,0.0,0.0,89,0.00,,,0.00,Wunderground v.1.15,2013-06-09 06:40:00,
2013-06-08 23:50:00,51.0,48.2,30.03,NNE,28,0.0,0.0,90,0.00,,,0.00,Wunderground v.1.15,2013-06-09 06:50:00,